Latest Weather Observations for Mount Gellibrand

IDV60801

Issued at 9:31 am EDT Thursday 2 April 2015 (issued every 30 minutes, with the page automatically refreshed every 10 minutes)

About weather observations | Map of weather stations | Latest weather observations for VIC | Other Formats
Station Details ID: 090035 Name: MOUNT GELLIBRAND Lat: -38.23 Lon: 143.79 Height: 261.0 m
Data from the previous 72 hours. | See also: Recent months at Mount Gellibrand
Date/Time
EDT
Temp
°C
App
Temp
°C
Dew
Point
Rel
Hum
%
Delta-T
°C
Wind Press
QNH
hPa
Press
MSL
hPa
Rain
since 9 am
mm
Dir
 
Spd
km/h
Gust
km/h
Spd
kts
Gust
kts
02/09:30am 11.6 5.5 4.8 63 3.1 SSW 26 35 14 19 1023.2 1023.0 0.0
02/09:00am 10.6 6.0 6.6 76 1.9 SW 20 28 11 15 1022.9 1022.7 0.2
02/08:30am 9.8 4.8 6.5 80 1.6 SSW 22 26 12 14 1022.3 1022.1 0.2
02/08:00am 9.0 3.3 6.6 85 1.1 SSW 26 32 14 17 1021.8 1021.5 0.2
02/07:30am 8.9 3.5 6.2 83 1.3 SW 24 28 13 15 1021.3 1021.0 0.2
02/07:00am 9.0 3.5 5.7 80 1.5 SW 24 33 13 18 1020.6 1020.3 0.2
02/06:30am 8.7 1.9 5.3 79 1.6 WSW 30 33 16 18 1020.0 1019.7 0.2
02/06:00am 8.8 2.3 4.8 76 1.8 WSW 28 30 15 16 1019.3 1019.1 0.2
02/05:30am 8.9 1.5 4.9 76 1.8 WSW 33 41 18 22 1018.7 1018.4 0.2
02/05:00am 9.5 2.9 5.9 78 1.7 WSW 30 35 16 19 1018.6 1018.3 0.2
02/04:30am 10.4 3.5 7.3 81 1.5 WSW 33 43 18 23 1018.2 1017.9 0.2
02/04:00am 10.9 4.9 8.7 86 1.1 WSW 30 35 16 19 1018.1 1017.8 0.2
02/03:30am 10.9 5.8 9.3 90 0.8 WSW 26 32 14 17 1017.9 1017.6 0.2
02/03:00am 11.2 4.8 9.5 89 0.9 WSW 33 39 18 21 1017.6 1017.3 0.2
02/02:30am 11.4 3.6 9.8 90 0.8 SW 41 48 22 26 1017.1 1016.8 0.2
02/02:00am 11.8 5.3 10.5 92 0.7 SW 35 48 19 26 1016.6 1016.3 0.2
02/01:30am 12.2 4.3 10.9 92 0.7 WSW 43 61 23 33 1016.5 1016.2 0.0
02/01:00am 12.8 4.9 11.4 91 0.7 WSW 44 57 24 31 1015.7 1015.5 0.0
02/12:30am 13.3 4.0 12.0 92 0.7 SW 52 69 28 37 1015.0 1014.7 0.0
02/12:12am 13.6 4.5 12.5 93 0.6 WSW 52 72 28 39 1014.6 1014.3 0.0
02/12:00am 14.0 7.1 12.7 92 0.7 WSW 41 52 22 28 1015.0 1014.7 0.0
 
Date/Time
EDT
Temp
°C
App
Temp
°C
Dew
Point
Rel
Hum
%
Delta-T
°C
Wind Press
QNH
hPa
Press
MSL
hPa
Rain
since 9 am
mm
Dir
 
Spd
km/h
Gust
km/h
Spd
kts
Gust
kts
01/11:58pm 14.0 7.1 12.7 92 0.7 WSW 41 52 22 28 1014.9 1014.6 0.0
01/11:30pm 16.3 9.8 14.0 86 1.3 W 41 56 22 30 1014.3 1014.0 0.0
01/11:00pm 16.4 11.0 13.9 85 1.4 W 35 50 19 27 1014.1 1013.8 0.0
01/10:30pm 16.6 11.1 13.5 82 1.8 W 35 48 19 26 1014.0 1013.7 0.0
01/10:00pm 16.9 9.7 13.2 79 2.1 W 43 50 23 27 1013.5 1013.2 0.0
01/09:30pm 17.6 13.0 12.3 71 3.0 WSW 28 37 15 20 1013.7 1013.4 0.0
01/09:00pm 18.1 11.3 11.9 67 3.5 WSW 39 46 21 25 1013.1 1012.8 0.0
01/08:30pm 18.9 10.5 11.0 60 4.3 SW 46 57 25 31 1012.4 1012.0 0.0
01/08:15pm 19.8 13.2 10.0 53 5.3 WSW 35 46 19 25 1012.0 1011.6 0.0
01/08:00pm 23.5 16.1 6.7 34 8.8 NW 35 44 19 24 1012.1 1011.7 0.0
01/07:30pm 24.6 16.5 3.3 25 10.5 NNW 35 41 19 22 1010.9 1010.6 0.0
01/07:00pm 25.2 16.6 2.6 23 11.1 NNW 37 43 20 23 1011.0 1010.7 0.0
01/06:30pm 25.9 17.8 3.2 23 11.3 NNW 35 43 19 23 1010.9 1010.6 0.0
01/06:00pm 26.4 17.9 3.0 22 11.6 NNW 37 48 20 26 1010.9 1010.6 0.0
01/05:30pm 26.7 16.9 3.2 22 11.8 NNW 44 57 24 31 1011.3 1011.0 0.0
01/05:00pm 27.0 15.6 2.8 21 12.0 NNW 52 69 28 37 1011.4 1011.1 0.0
01/04:30pm 27.8 16.1 3.5 21 12.3 NNW 54 69 29 37 1011.5 1011.2 0.0
01/04:21pm 27.3 16.8 3.7 22 12.0 NNW 48 69 26 37 1011.4 1011.1 0.0
01/04:00pm 27.1 15.9 4.2 23 11.7 NNW 52 61 28 33 1012.1 1011.7 0.0
01/03:30pm 27.0 16.3 4.7 24 11.5 NNW 50 69 27 37 1012.1 1011.7 0.0
01/03:29pm 27.0 16.7 4.7 24 11.5 NNW 48 69 26 37 1012.1 1011.7 0.0
01/03:00pm 27.3 17.6 5.6 25 11.4 NNW 46 56 25 30 1013.1 1012.8 0.0
01/02:30pm 25.8 15.5 4.9 26 10.7 NNW 48 61 26 33 1013.3 1013.0 0.0
01/02:00pm 27.4 15.5 4.5 23 11.8 N 56 65 30 35 1013.2 1012.9 0.0
01/01:40pm 26.3 16.8 4.7 25 11.1 N 44 65 24 35 1013.8 1013.5 0.0
01/01:30pm 26.2 17.1 5.7 27 10.7 NNW 43 52 23 28 1014.3 1014.0 0.0
01/01:00pm 25.4 14.9 5.6 28 10.2 N 50 59 27 32 1014.7 1014.4 0.0
01/12:30pm 27.5 17.8 5.7 25 11.4 N 46 61 25 33 1015.1 1014.8 0.0
01/12:00pm 26.4 17.2 6.4 28 10.6 N 44 54 24 29 1015.7 1015.5 0.0
01/11:30am 24.4 15.8 6.6 32 9.3 N 41 52 22 28 1016.3 1016.0 0.0
01/11:00am 22.3 17.7 9.5 44 7.0 N 24 33 13 18 1017.1 1016.8 0.0
01/10:30am 20.4 15.5 7.1 42 6.9 N 22 30 12 16 1017.4 1016.8 0.0
01/10:00am 18.7 15.2 7.2 47 5.9 N 15 19 8 10 1017.6 1017.0 0.0
01/09:30am 18.7 14.4 7.2 47 5.9 N 19 20 10 11 1017.8 1017.2 0.0
01/09:00am 17.7 14.2 7.4 51 5.2 N 15 17 8 9 1018.2 1017.6 0.2
01/08:30am 17.4 13.0 7.2 51 5.2 N 20 24 11 13 1018.2 1017.6 0.2
01/08:00am 16.3 13.1 7.0 54 4.7 N 13 15 7 8 1018.2 1017.6 0.2
01/07:30am 16.3 12.7 6.7 53 4.8 N 15 17 8 9 1018.2 1017.6 0.2
01/07:00am 16.5 12.6 6.9 53 4.8 N 17 20 9 11 1018.2 1017.6 0.2
01/06:30am 17.6 13.9 6.5 48 5.6 N 15 20 8 11 1018.1 1017.5 0.2
01/06:00am 17.1 12.6 6.3 49 5.4 N 19 26 10 14 1018.1 1017.5 0.2
01/05:30am 17.8 13.2 6.3 47 5.7 N 20 26 11 14 1018.2 1017.6 0.2
01/05:00am 16.3 12.3 6.7 53 4.8 N 17 20 9 11 1018.5 1017.9 0.2
01/04:30am 16.1 12.1 6.8 54 4.6 N 17 19 9 10 1018.7 1018.1 0.2
01/04:00am 15.7 11.9 7.7 59 4.0 N 17 17 9 9 1019.0 1018.5 0.2
01/03:30am 15.7 12.9 8.7 63 3.6 NNE 13 15 7 8 1019.4 1018.9 0.2
01/03:00am 15.7 13.6 9.8 68 3.1 NNE 11 13 6 7 1020.1 1019.5 0.2
01/02:30am 15.7 13.8 11.9 78 2.1 NE 13 19 7 10 1020.4 1019.8 0.2
01/02:00am 15.3 12.5 12.6 84 1.5 NE 19 20 10 11 1020.7 1020.1 0.0
01/01:30am 14.1 11.7 12.8 92 0.7 NE 17 20 9 11 1021.0 1020.4 0.0
01/01:00am 14.4 11.7 13.0 91 0.8 ENE 19 22 10 12 1021.2 1020.6 0.0
01/12:30am 14.6 11.8 13.3 92 0.7 ENE 20 26 11 14 1021.6 1021.0 0.0
01/12:00am 14.3 11.2 13.3 94 0.6 ENE 22 24 12 13 1021.6 1021.0 0.0
 
Date/Time
EDT
Temp
°C
App
Temp
°C
Dew
Point
Rel
Hum
%
Delta-T
°C
Wind Press
QNH
hPa
Press
MSL
hPa
Rain
since 9 am
mm
Dir
 
Spd
km/h
Gust
km/h
Spd
kts
Gust
kts
31/11:30pm 14.4 11.3 13.3 93 0.6 ENE 22 26 12 14 1022.2 1021.7 0.0
31/11:00pm 14.2 11.0 13.2 94 0.6 E 22 26 12 14 1022.3 1021.8 0.0
31/10:30pm 13.9 10.6 12.8 93 0.6 E 22 24 12 13 1022.3 1021.8 0.0
31/10:00pm 14.3 11.4 13.0 92 0.7 E 20 24 11 13 1022.5 1022.0 0.0
31/09:30pm 14.2 11.3 12.8 91 0.8 E 20 24 11 13 1022.4 1021.9 0.0
31/09:00pm 14.2 11.2 12.6 90 0.9 E 20 22 11 12 1022.5 1022.0 0.0
31/08:30pm 14.6 11.6 12.1 85 1.4 ESE 19 22 10 12 1022.7 1022.2 0.0
31/08:00pm 15.3 12.8 12.2 82 1.7 E 17 20 9 11 1022.5 1022.0 0.0
31/07:30pm 16.0 13.0 12.4 79 2.0 E 20 22 11 12 1022.1 1021.5 0.0
31/07:00pm 17.7 14.5 11.9 69 3.2 E 20 24 11 13 1022.1 1021.5 0.0
31/06:30pm 19.3 16.2 12.3 64 4.0 E 20 26 11 14 1021.9 1021.3 0.0
31/06:00pm 21.3 17.9 12.4 57 5.1 E 22 26 12 14 1021.8 1021.2 0.0
31/05:30pm 24.7 22.5 6.4 31 9.6 NW 7 13 4 7 1021.8 1021.2 0.0
31/05:00pm 25.2 23.3 6.9 31 9.6 NW 6 17 3 9 1022.1 1021.5 0.0
31/04:30pm 24.8 22.2 6.1 30 9.7 WNW 9 13 5 7 1022.2 1021.7 0.0
31/04:00pm 25.1 22.8 7.3 32 9.4 WNW 9 19 5 10 1022.4 1021.9 0.0
31/03:30pm 24.6 22.7 7.7 34 9.0 N 7 15 4 8 1022.8 1022.3 0.0
31/03:00pm 23.3 21.9 9.0 40 7.7 NW 6 9 3 5 1023.2 1022.7 0.0
31/02:30pm 23.0 21.7 9.8 43 7.3 NNE 7 15 4 8 1023.6 1023.1 0.0
31/02:00pm 22.1 20.0 9.9 46 6.7 N 11 15 6 8 1024.0 1023.4 0.0
31/01:30pm 21.7 20.4 11.4 52 5.8 NNE 9 19 5 10 1024.6 1024.0 0.0
31/01:00pm 20.8 18.8 11.4 55 5.2 NE 13 22 7 12 1024.9 1024.3 0.0
31/12:30pm 20.5 17.8 11.7 57 4.9 ENE 17 24 9 13 1025.4 1024.8 0.0
31/12:00pm 19.6 17.0 12.1 62 4.2 NE 17 26 9 14 1025.7 1025.2 0.0
31/11:30am 18.2 14.9 11.0 63 3.9 NE 19 24 10 13 1026.1 1025.6 0.0
31/11:00am 17.9 14.9 11.9 68 3.3 ENE 19 24 10 13 1026.4 1025.9 0.0
31/10:30am 16.1 14.5 13.8 86 1.3 ENE 15 20 8 11 1026.6 1026.1 0.0
31/10:00am 14.2 13.6 13.4 95 0.4 E 9 13 5 7 1027.0 1026.5 0.0
31/09:30am 13.1 12.6 12.5 96 0.3 SSE 7 9 4 5 1027.1 1026.6 0.0
31/09:00am 12.4 11.6 11.8 96 0.3 SSE 7 9 4 5 1026.8 1026.3 0.0
31/08:30am 11.9 10.6 11.3 96 0.3 SSE 9 11 5 6 1026.6 1026.1 0.0
31/08:00am 12.1 10.9 11.5 96 0.3 SE 9 11 5 6 1026.3 1025.8 0.0
31/07:30am 12.3 11.7 11.7 96 0.3 ESE 6 9 3 5 1026.2 1025.7 0.0
31/07:00am 12.4 11.6 11.8 96 0.3 ESE 7 9 4 5 1025.9 1025.4 0.0
31/06:30am 12.4 11.6 11.8 96 0.3 ESE 7 11 4 6 1025.7 1025.2 0.0
31/06:00am 12.2 11.4 11.6 96 0.3 SE 7 9 4 5 1025.7 1025.2 0.0
31/05:30am 12.4 11.6 11.8 96 0.3 ESE 7 9 4 5 1025.6 1025.1 0.0
31/05:00am 12.7 11.6 12.1 96 0.3 ESE 9 13 5 7 1025.5 1025.0 0.0
31/04:30am 12.8 12.3 12.2 96 0.3 ESE 6 11 3 6 1025.6 1025.1 0.0
31/04:00am 13.1 12.6 12.5 96 0.3 E 7 11 4 6 1025.7 1025.2 0.0
31/03:30am 13.0 12.0 12.4 96 0.3 E 9 15 5 8 1025.7 1025.2 0.0
31/03:00am 12.9 12.2 12.1 95 0.4 E 7 9 4 5 1025.9 1025.4 0.0
31/02:30am 12.9 11.8 12.1 95 0.4 E 9 13 5 7 1026.2 1025.7 0.0
31/02:00am 13.1 11.7 12.3 95 0.4 E 11 15 6 8 1026.2 1025.7 0.0
31/01:30am 13.3 12.0 12.4 94 0.5 ENE 11 13 6 7 1026.3 1025.8 0.0
31/01:00am 12.9 11.4 12.0 94 0.5 NE 11 13 6 7 1026.4 1025.9 0.0
31/12:30am 12.9 11.4 11.8 93 0.6 NE 11 13 6 7 1026.4 1025.9 0.0
31/12:00am 13.0 11.9 11.9 93 0.6 NE 9 11 5 6 1026.6 1026.1 0.0
 
Date/Time
EDT
Temp
°C
App
Temp
°C
Dew
Point
Rel
Hum
%
Delta-T
°C
Wind Press
QNH
hPa
Press
MSL
hPa
Rain
since 9 am
mm
Dir
 
Spd
km/h
Gust
km/h
Spd
kts
Gust
kts
30/11:30pm 13.2 11.7 11.9 92 0.7 NE 11 13 6 7 1026.7 1026.2 0.0
30/11:00pm 13.0 11.4 11.6 91 0.7 NE 11 13 6 7 1026.6 1026.1 0.0
30/10:30pm 13.2 11.6 11.6 90 0.9 NE 11 13 6 7 1026.7 1026.2 0.0
30/10:00pm 13.5 12.3 11.7 89 1.0 NE 9 11 5 6 1026.6 1026.1 0.0
30/09:30pm 13.8 12.6 11.5 86 1.2 NE 9 15 5 8 1026.6 1026.1 0.0
30/09:00pm 14.5 13.0 9.3 71 2.7 SSW 7 13 4 7 1026.4 1025.9 0.0
30/08:30pm 15.4 11.8 10.0 70 2.9 SSW 19 20 10 11 1026.0 1025.5 0.0
30/08:00pm 16.0 11.8 9.9 67 3.2 SW 22 24 12 13 1025.8 1025.3 0.0
30/07:30pm 16.7 13.2 10.1 65 3.5 SW 19 24 10 13 1025.5 1025.0 0.0
30/07:00pm 17.8 14.1 10.2 61 4.1 SW 20 22 11 12 1025.2 1024.6 0.0
30/06:30pm 19.2 16.4 9.9 55 5.0 SW 15 17 8 9 1024.8 1024.2 0.0
30/06:00pm 19.9 16.3 10.0 53 5.4 SW 19 22 10 12 1024.5 1023.9 0.0
30/05:30pm 21.0 18.6 9.9 49 6.1 WSW 13 20 7 11 1024.2 1023.6 0.0
30/05:00pm 20.0 16.9 10.4 54 5.2 SW 17 22 9 12 1024.1 1023.5 0.0
30/04:30pm 20.6 18.2 10.1 51 5.7 SW 13 24 7 13 1024.0 1023.4 0.0
30/04:00pm 20.0 18.7 9.9 52 5.5 SW 7 13 4 7 1024.1 1023.5 0.0
30/03:30pm 20.4 18.5 10.5 53 5.4 SW 11 20 6 11 1024.3 1023.7 0.0
30/03:00pm 19.9 17.1 10.0 53 5.4 W 15 22 8 12 1024.5 1023.9 0.0
30/02:30pm 20.0 16.4 9.9 52 5.5 W 19 28 10 15 1024.6 1024.0 0.0
30/02:00pm 19.7 16.4 9.6 52 5.4 W 17 26 9 14 1024.7 1024.1 0.0
30/01:30pm 19.6 17.2 10.0 54 5.2 WSW 13 22 7 12 1024.9 1024.3 0.0
30/01:00pm 19.7 17.3 10.1 54 5.2 W 13 17 7 9 1025.0 1024.4 0.0
30/12:30pm 18.2 17.1 10.6 61 4.1 W 7 13 4 7 1025.2 1024.6 0.0
30/12:00pm 17.8 16.0 10.7 63 3.8 W 11 17 6 9 1025.3 1024.7 0.0
30/11:30am 16.5 15.1 10.8 69 3.1 W 9 15 5 8 1025.5 1025.0 0.0
30/11:00am 15.7 14.8 11.5 76 2.3 W 7 13 4 7 1025.5 1025.0 0.0
30/10:30am 14.9 14.2 11.9 82 1.6 WSW 7 13 4 7 1025.4 1024.8 0.0
30/10:00am 13.8 12.4 10.8 82 1.6 WSW 9 13 5 7 1025.2 1024.6 0.0

Other Formats:

Comma delimited format used in spreadsheet applications
http://www.bom.gov.au/fwo/IDV60801/IDV60801.95845.axf

JavaScript Object Notation format (JSON) in row-major order
http://www.bom.gov.au/fwo/IDV60801/IDV60801.95845.json